Time;durP1;ratioP1;P1;durP2;ratioP2;P2;SDS_P1;SDS_P2;PMS_P1;PMS_P2;Temp;Humidity;BMP_temperature;BMP_pressure;BME280_temperature;BME280_humidity;BME280_pressure;Samples;Min_cycle;Max_cycle;Signal;HPM_P1;HPM_P2
2023/07/01 00:01:29;;;;;;;;;;;;;;;16.13;100.00;97507.97;18565870;32;19989;-47
2023/07/01 00:11:32;;;;;;;;;;;;;;;16.11;100.00;97516.47;18564986;31;19961;-47
2023/07/01 00:21:34;;;;;;;;;;;;;;;16.09;100.00;97510.53;18563899;32;19961;-47
2023/07/01 00:31:37;;;;;;;;;;;;;;;16.07;100.00;97501.84;18563727;32;19968;-47
2023/07/01 00:41:39;;;;;;;;;;;;;;;16.05;100.00;97495.91;18549273;32;20249;-46
2023/07/01 00:51:42;;;;;;;;;;;;;;;16.02;100.00;97488.31;18562827;32;19971;-47
2023/07/01 01:01:46;;;;;;;;;;;;;;;16.04;100.00;97497.81;18562271;32;19986;-46
2023/07/01 01:11:53;;;;;;;;;;;;;;;16.04;100.00;97491.56;18561777;32;19948;-47
2023/07/01 01:22:14;;;;;;;;;;;;;;;16.02;100.00;97486.44;18561554;32;19986;-48
2023/07/01 01:32:17;;;;;;;;;;;;;;;16.04;100.00;97475.19;18560469;32;19980;-46
2023/07/01 01:42:23;;;;;;;;;;;;;;;15.99;100.00;97464.41;18546767;32;20337;-47
2023/07/01 01:52:26;;;;;;;;;;;;;;;15.87;100.00;97470.44;18560615;32;19997;-46
2023/07/01 02:02:28;;;;;;;;;;;;;;;15.81;100.00;97458.84;18559985;31;19948;-46
2023/07/01 02:12:31;;;;;;;;;;;;;;;15.74;100.00;97450.25;18559809;32;19960;-47
2023/07/01 02:22:34;;;;;;;;;;;;;;;15.71;100.00;97445.44;18559451;32;19960;-49
2023/07/01 02:32:37;;;;;;;;;;;;;;;15.68;100.00;97441.41;18558781;32;19952;-46
2023/07/01 02:42:40;;;;;;;;;;;;;;;15.63;100.00;97438.00;18553469;32;19956;-48
2023/07/01 02:52:43;;;;;;;;;;;;;;;15.57;100.00;97448.22;18570174;32;19960;-48
2023/07/01 03:02:46;;;;;;;;;;;;;;;15.52;100.00;97449.13;18555349;32;20001;-47
2023/07/01 03:12:49;;;;;;;;;;;;;;;15.38;100.00;97448.37;18569287;32;19979;-47
2023/07/01 03:22:52;;;;;;;;;;;;;;;15.19;100.00;97460.19;18568360;32;19952;-46
2023/07/01 03:32:56;;;;;;;;;;;;;;;15.03;100.00;97459.72;18567395;32;19967;-50
2023/07/01 03:42:59;;;;;;;;;;;;;;;14.82;100.00;97453.09;18567233;32;19948;-47
2023/07/01 03:53:01;;;;;;;;;;;;;;;14.56;100.00;97454.34;18552813;32;19972;-49
2023/07/01 04:03:08;;;;;;;;;;;;;;;14.37;100.00;97453.63;18565913;32;20279;-47
2023/07/01 04:13:12;;;;;;;;;;;;;;;14.23;100.00;97432.66;18565274;32;20273;-47
2023/07/01 04:23:14;;;;;;;;;;;;;;;14.17;100.00;97438.47;18550449;32;20363;-47
2023/07/01 04:33:16;;;;;;;;;;;;;;;14.15;100.00;97446.94;18563782;32;20003;-47
2023/07/01 04:43:19;;;;;;;;;;;;;;;14.20;100.00;97448.78;18563613;31;19961;-47
2023/07/01 04:53:22;;;;;;;;;;;;;;;14.29;100.00;97452.38;18548507;32;19967;-47
2023/07/01 05:03:28;;;;;;;;;;;;;;;14.43;100.00;97447.00;18562125;32;19961;-46
2023/07/01 05:13:30;;;;;;;;;;;;;;;14.57;100.00;97442.34;18561866;32;19976;-46
2023/07/01 05:23:33;;;;;;;;;;;;;;;14.72;100.00;97438.56;18546979;32;19953;-46
2023/07/01 05:33:35;;;;;;;;;;;;;;;14.94;100.00;97447.94;18560825;32;19960;-50
2023/07/01 05:43:38;;;;;;;;;;;;;;;15.22;100.00;97442.44;18560587;32;19952;-47
2023/07/01 05:53:44;;;;;;;;;;;;;;;15.50;100.00;97445.91;18560155;32;19953;-50
2023/07/01 06:03:47;;;;;;;;;;;;;;;15.78;100.00;97445.78;18560302;32;19968;-49
2023/07/01 06:13:51;;;;;;;;;;;;;;;16.03;100.00;97449.88;18564133;32;19993;-47
2023/07/01 06:23:55;;;;;;;;;;;;;;;16.36;100.00;97451.47;18571828;32;19949;-49
2023/07/01 06:33:59;;;;;;;;;;;;;;;16.69;100.00;97448.41;18570970;31;19965;-47
2023/07/01 06:44:02;;;;;;;;;;;;;;;17.07;100.00;97440.50;18570863;32;19959;-47
2023/07/01 06:54:05;;;;;;;;;;;;;;;17.47;100.00;97447.81;18570213;32;19960;-49
2023/07/01 07:04:08;;;;;;;;;;;;;;;17.78;100.00;97438.66;18555062;32;20356;-49
2023/07/01 07:14:13;;;;;;;;;;;;;;;18.13;100.00;97433.16;18569083;32;19956;-47
2023/07/01 07:24:16;;;;;;;;;;;;;;;18.52;100.00;97420.31;18568780;32;19963;-47
2023/07/01 07:34:19;;;;;;;;;;;;;;;18.85;100.00;97427.09;18568161;32;19965;-48
2023/07/01 07:44:22;;;;;;;;;;;;;;;19.17;100.00;97416.63;18553210;32;19956;-47
2023/07/01 07:54:25;;;;;;;;;;;;;;;19.44;100.00;97407.06;18566565;32;19977;-48
2023/07/01 08:04:28;;;;;;;;;;;;;;;19.84;100.00;97406.56;18565725;32;19983;-49
2023/07/01 08:14:31;;;;;;;;;;;;;;;20.26;99.94;97389.22;18551165;32;19967;-48
2023/07/01 08:24:34;;;;;;;;;;;;;;;20.65;89.75;97385.00;18564714;31;19991;-48
2023/07/01 08:34:37;;;;;;;;;;;;;;;21.11;87.67;97378.59;18549132;32;20015;-48
2023/07/01 08:44:41;;;;;;;;;;;;;;;21.36;86.91;97370.28;18549265;32;20306;-47
2023/07/01 08:54:44;;;;;;;;;;;;;;;22.08;67.38;97364.81;18548527;32;19982;-49
2023/07/01 09:04:47;;;;;;;;;;;;;;;22.23;80.54;97354.97;18535254;32;19957;-47
2023/07/01 09:14:57;;;;;;;;;;;;;;;22.22;76.96;97339.59;18561823;31;19985;-48
2023/07/01 09:25:00;;;;;;;;;;;;;;;22.59;76.99;97341.31;18561728;32;19971;-47
2023/07/01 09:35:04;;;;;;;;;;;;;;;22.93;78.71;97330.66;18560995;32;20385;-47
2023/07/01 09:45:07;;;;;;;;;;;;;;;23.30;75.08;97328.31;18562002;32;19956;-47
2023/07/01 09:55:12;;;;;;;;;;;;;;;23.98;76.32;97328.88;18573675;32;20328;-49
2023/07/01 10:05:15;;;;;;;;;;;;;;;23.68;62.00;97318.44;18573610;32;19976;-48
2023/07/01 10:15:24;;;;;;;;;;;;;;;23.81;68.64;97307.22;18572490;32;19965;-48
2023/07/01 10:25:28;;;;;;;;;;;;;;;23.91;57.95;97317.66;18572142;32;19961;-48
2023/07/01 10:35:55;;;;;;;;;;;;;;;24.20;68.67;97298.84;18571334;32;19965;-47
2023/07/01 10:46:07;;;;;;;;;;;;;;;24.47;60.03;97296.09;18570894;32;20303;-51
2023/07/01 10:56:12;;;;;;;;;;;;;;;24.31;62.19;97282.44;18569986;32;19960;-50
2023/07/01 11:06:15;;;;;;;;;;;;;;;24.49;62.26;97283.53;18569256;31;19967;-48
2023/07/01 11:16:20;;;;;;;;;;;;;;;24.50;62.79;97267.72;18568783;32;19972;-47
2023/07/01 11:26:24;;;;;;;;;;;;;;;24.40;62.48;97255.34;18568059;31;20282;-48
2023/07/01 11:36:42;;;;;;;;;;;;;;;24.40;61.77;97252.59;18567760;32;20009;-48
2023/07/01 11:46:46;;;;;;;;;;;;;;;24.60;69.49;97242.22;18567683;32;19971;-48
2023/07/01 11:56:52;;;;;;;;;;;;;;;24.61;68.80;97243.84;18566439;32;19963;-48
2023/07/01 12:07:11;;;;;;;;;;;;;;;25.07;68.94;97234.56;18551436;32;20333;-51
2023/07/01 12:17:28;;;;;;;;;;;;;;;24.78;70.62;97236.97;18564577;32;19985;-47
2023/07/01 12:27:31;;;;;;;;;;;;;;;24.09;72.63;97248.97;18550209;31;19963;-48
2023/07/01 12:37:35;;;;;;;;;;;;;;;23.72;83.61;97235.66;18564400;32;19999;-47
2023/07/01 12:47:39;;;;;;;;;;;;;;;23.66;81.95;97232.41;18563188;32;19973;-48
2023/07/01 12:57:43;;;;;;;;;;;;;;;23.40;82.38;97227.63;18562879;31;19994;-47
2023/07/01 13:07:48;;;;;;;;;;;;;;;23.45;87.76;97232.84;18562919;32;20351;-48
2023/07/01 13:17:51;;;;;;;;;;;;;;;23.68;90.78;97221.81;18561852;32;19981;-47
2023/07/01 13:27:54;;;;;;;;;;;;;;;23.45;89.80;97218.25;18560770;32;19960;-47
2023/07/01 13:38:08;;;;;;;;;;;;;;;23.30;95.35;97214.44;18561537;31;20000;-47
2023/07/01 13:48:23;;;;;;;;;;;;;;;23.14;96.84;97204.28;18560832;32;19952;-46
2023/07/01 13:58:41;;;;;;;;;;;;;;;23.17;100.00;97202.75;18560650;32;19961;-47
2023/07/01 14:08:45;;;;;;;;;;;;;;;23.38;100.00;97196.03;18560357;32;19948;-46
2023/07/01 14:18:49;;;;;;;;;;;;;;;23.67;98.04;97195.38;18559688;32;20352;-47
2023/07/01 14:28:56;;;;;;;;;;;;;;;23.51;97.53;97180.91;18545073;31;19972;-50
2023/07/01 14:39:03;;;;;;;;;;;;;;;23.17;100.00;97175.19;18569209;32;19968;-47
2023/07/01 14:49:06;;;;;;;;;;;;;;;22.72;100.00;97171.13;18570530;32;19948;-47
2023/07/01 14:59:09;;;;;;;;;;;;;;;22.25;100.00;97175.59;18570100;32;20011;-47
2023/07/01 15:09:12;;;;;;;;;;;;;;;22.00;100.00;97173.09;18569403;32;19945;-47
2023/07/01 15:19:15;;;;;;;;;;;;;;;21.76;100.00;97187.84;18568847;32;19968;-46
2023/07/01 15:29:18;;;;;;;;;;;;;;;21.67;100.00;97186.06;18567824;31;19984;-47
2023/07/01 15:39:21;;;;;;;;;;;;;;;21.66;100.00;97183.66;18567434;31;20351;-47
2023/07/01 15:49:25;;;;;;;;;;;;;;;21.66;100.00;97180.91;18566733;32;20372;-46
2023/07/01 15:59:28;;;;;;;;;;;;;;;21.75;100.00;97180.72;18566450;32;20015;-47
2023/07/01 16:09:40;;;;;;;;;;;;;;;21.90;100.00;97177.19;18565600;32;19995;-47
2023/07/01 16:19:43;;;;;;;;;;;;;;;21.75;100.00;97178.78;18565972;32;19953;-48
2023/07/01 16:29:46;;;;;;;;;;;;;;;21.59;100.00;97176.03;18564268;31;19963;-48
2023/07/01 16:39:50;;;;;;;;;;;;;;;21.32;100.00;97186.72;18563768;32;19964;-46
2023/07/01 16:49:56;;;;;;;;;;;;;;;21.37;100.00;97188.41;18563568;32;19996;-46
2023/07/01 17:00:07;;;;;;;;;;;;;;;21.64;100.00;97186.78;18548938;32;20280;-48
2023/07/01 17:10:22;;;;;;;;;;;;;;;22.06;100.00;97187.38;18548355;32;19975;-48
2023/07/01 17:20:26;;;;;;;;;;;;;;;21.64;100.00;97191.50;18561789;32;19990;-48
2023/07/01 17:30:29;;;;;;;;;;;;;;;21.39;100.00;97202.63;18561159;32;19952;-48
2023/07/01 17:40:32;;;;;;;;;;;;;;;21.18;100.00;97218.53;18560960;32;20008;-48
2023/07/01 17:50:36;;;;;;;;;;;;;;;20.83;100.00;97222.69;18561248;32;19960;-47
2023/07/01 18:00:39;;;;;;;;;;;;;;;20.50;100.00;97234.66;18560519;32;19972;-48
2023/07/01 18:10:46;;;;;;;;;;;;;;;20.28;100.00;97236.72;18567406;32;20357;-47
2023/07/01 18:20:49;;;;;;;;;;;;;;;19.92;100.00;97243.03;18572507;31;19956;-46
2023/07/01 18:31:01;;;;;;;;;;;;;;;19.72;100.00;97244.66;18571461;31;19999;-49
2023/07/01 18:41:06;;;;;;;;;;;;;;;19.55;100.00;97243.72;18571296;32;19967;-47
2023/07/01 18:51:09;;;;;;;;;;;;;;;19.35;100.00;97241.84;18556150;32;20008;-47
2023/07/01 19:01:13;;;;;;;;;;;;;;;19.21;100.00;97240.22;18569947;32;20004;-48
2023/07/01 19:11:16;;;;;;;;;;;;;;;19.06;100.00;97241.66;18569596;32;20261;-47
2023/07/01 19:21:20;;;;;;;;;;;;;;;18.88;100.00;97251.13;18568073;32;19969;-48
2023/07/01 19:31:23;;;;;;;;;;;;;;;18.76;100.00;97260.06;18553688;32;20325;-48
2023/07/01 19:41:31;;;;;;;;;;;;;;;18.60;100.00;97252.44;18567863;32;19965;-48
2023/07/01 19:51:35;;;;;;;;;;;;;;;18.39;100.00;97254.34;18567138;32;19971;-48
2023/07/01 20:01:38;;;;;;;;;;;;;;;18.23;100.00;97279.56;18552172;32;20043;-49
2023/07/01 20:11:42;;;;;;;;;;;;;;;18.08;100.00;97291.06;18565505;31;19971;-49
2023/07/01 20:21:44;;;;;;;;;;;;;;;17.97;100.00;97303.50;18551116;32;19970;-48
2023/07/01 20:31:48;;;;;;;;;;;;;;;17.84;100.00;97308.81;18563366;32;19981;-47
2023/07/01 20:41:51;;;;;;;;;;;;;;;17.65;100.00;97305.66;18550365;32;19961;-48
2023/07/01 20:52:09;;;;;;;;;;;;;;;17.40;100.00;97306.19;18563390;32;20328;-48
2023/07/01 21:02:12;;;;;;;;;;;;;;;17.34;100.00;97312.16;18562721;32;20334;-47
2023/07/01 21:12:17;;;;;;;;;;;;;;;17.35;100.00;97319.19;18562403;32;19956;-47
2023/07/01 21:22:22;;;;;;;;;;;;;;;17.30;100.00;97346.72;18561929;32;19964;-50
2023/07/01 21:32:26;;;;;;;;;;;;;;;17.31;100.00;97346.38;18546739;32;20359;-48
2023/07/01 21:42:28;;;;;;;;;;;;;;;17.30;100.00;97328.38;18566295;32;19996;-47
2023/07/01 21:52:33;;;;;;;;;;;;;;;17.31;100.00;97329.16;18582459;32;19959;-52
2023/07/01 22:02:36;;;;;;;;;;;;;;;17.33;100.00;97349.56;18567550;32;20298;-47
2023/07/01 22:12:40;;;;;;;;;;;;;;;17.32;100.00;97358.09;18582084;32;19956;-51
2023/07/01 22:22:43;;;;;;;;;;;;;;;17.30;100.00;97360.38;18581425;32;20375;-47
2023/07/01 22:32:45;;;;;;;;;;;;;;;17.31;100.00;97357.31;18566560;32;19964;-49
2023/07/01 22:42:49;;;;;;;;;;;;;;;17.28;100.00;97352.50;18566725;32;20015;-48
2023/07/01 22:52:52;;;;;;;;;;;;;;;17.18;100.00;97359.06;18578319;31;20364;-50
2023/07/01 23:02:55;;;;;;;;;;;;;;;17.14;100.00;97355.34;18556060;32;20001;-48
2023/07/01 23:12:57;;;;;;;;;;;;;;;17.04;100.00;97347.50;18569629;32;19968;-49
2023/07/01 23:23:02;;;;;;;;;;;;;;;16.95;100.00;97350.19;18568878;32;19953;-48
2023/07/01 23:33:09;;;;;;;;;;;;;;;16.80;100.00;97365.13;18568545;32;19976;-49
2023/07/01 23:43:12;;;;;;;;;;;;;;;16.69;100.00;97364.59;18568161;32;19961;-48
2023/07/01 23:53:15;;;;;;;;;;;;;;;16.69;100.00;97363.78;18567310;32;19957;-50
